Time;durP1;ratioP1;P1;durP2;ratioP2;P2;SDS_P1;SDS_P2;PMS_P1;PMS_P2;Temp;Humidity;BMP_temperature;BMP_pressure;BME280_temperature;BME280_humidity;BME280_pressure;Samples;Min_cycle;Max_cycle;Signal;HPM_P1;HPM_P2
2023/08/09 00:00:49;;;;;;;10.65;4.88;;;14.00;86.00;;;;;;5093372;28;20178;-74
2023/08/09 00:03:16;;;;;;;7.78;4.25;;;14.00;85.90;;;;;;5092931;28;20063;-74
2023/08/09 00:05:44;;;;;;;9.77;4.57;;;14.00;85.90;;;;;;5092551;28;20028;-73
2023/08/09 00:08:11;;;;;;;9.77;4.35;;;14.10;85.60;;;;;;5092539;28;20521;-74
2023/08/09 00:10:38;;;;;;;8.90;3.97;;;14.20;85.60;;;;;;5092345;28;20034;-73
2023/08/09 00:13:06;;;;;;;5.78;4.07;;;14.20;85.30;;;;;;5092317;28;20082;-74
2023/08/09 07:47:50;;;;;;;4.93;1.88;;;16.10;75.70;;;;;;5096094;28;20116;-74
2023/08/09 07:50:17;;;;;;;1.88;1.60;;;16.10;75.40;;;;;;5078495;28;20387;-74
2023/08/09 07:52:45;;;;;;;3.58;1.60;;;16.10;75.60;;;;;;5109777;28;20042;-74
2023/08/09 07:55:12;;;;;;;6.38;1.77;;;16.10;75.50;;;;;;5100037;28;20048;-74
2023/08/09 07:57:40;;;;;;;4.00;1.60;;;16.10;75.50;;;;;;5091812;28;20036;-76
2023/08/09 08:00:17;;;;;;;4.63;1.63;;;16.00;75.40;;;;;;5090228;28;20508;-75
2023/08/09 08:02:45;;;;;;;5.78;1.75;;;16.00;75.20;;;;;;5077779;28;20444;-73
2023/08/09 08:05:15;;;;;;;5.25;1.90;;;16.00;75.30;;;;;;5099081;28;20036;-72
2023/08/09 08:07:43;;;;;;;5.13;1.73;;;16.00;75.60;;;;;;5082265;28;20046;-78
2023/08/09 08:10:14;;;;;;;6.80;2.15;;;16.00;75.80;;;;;;5089860;28;20065;-77
2023/08/09 08:12:42;;;;;;;4.20;1.80;;;15.90;75.70;;;;;;5092090;28;20051;-77
2023/08/09 08:15:10;;;;;;;6.05;2.28;;;15.90;75.80;;;;;;5090630;28;20039;-81
2023/08/09 08:17:37;;;;;;;3.83;1.70;;;15.90;76.00;;;;;;5086016;28;20059;-76
2023/08/09 08:20:10;;;;;;;5.78;1.65;;;15.90;75.90;;;;;;5103687;28;20073;-78
2023/08/09 08:22:38;;;;;;;7.00;1.88;;;15.90;76.10;;;;;;5090852;28;20076;-77
2023/08/09 08:25:05;;;;;;;5.45;1.80;;;15.90;76.30;;;;;;5109044;28;20074;-77
2023/08/09 08:27:36;;;;;;;2.85;1.63;;;15.80;76.50;;;;;;5096122;28;20032;-76
2023/08/09 08:30:04;;;;;;;5.25;1.95;;;15.80;76.70;;;;;;5073824;28;20489;-74
2023/08/09 08:32:32;;;;;;;4.30;1.92;;;15.80;76.90;;;;;;5089200;28;20485;-75
2023/08/09 08:35:02;;;;;;;5.45;1.65;;;15.80;77.10;;;;;;5089182;28;20055;-75
2023/08/09 08:37:29;;;;;;;7.40;1.65;;;15.70;77.10;;;;;;5086401;28;20033;-74
2023/08/09 08:39:57;;;;;;;4.32;1.95;;;15.70;77.10;;;;;;5089785;28;20049;-74
2023/08/09 08:42:24;;;;;;;7.05;1.77;;;15.70;77.20;;;;;;5109610;28;20039;-74
2023/08/09 08:44:52;;;;;;;9.88;1.88;;;15.70;77.20;;;;;;5109714;28;20059;-75
2023/08/09 08:47:19;;;;;;;4.80;1.88;;;15.70;77.30;;;;;;5074366;28;20051;-73
2023/08/09 08:49:48;;;;;;;7.40;2.20;;;15.70;77.40;;;;;;5086776;28;20495;-73
2023/08/09 08:52:15;;;;;;;4.18;1.90;;;15.70;77.50;;;;;;5066029;28;20367;-73
2023/08/09 08:54:42;;;;;;;7.63;2.08;;;15.70;77.70;;;;;;5091374;28;20031;-75
2023/08/09 08:57:09;;;;;;;3.85;1.83;;;15.70;77.70;;;;;;5073620;28;20040;-77
2023/08/09 08:59:37;;;;;;;5.72;2.30;;;15.70;77.90;;;;;;5107331;28;20028;-75
2023/08/09 09:02:04;;;;;;;4.88;1.75;;;15.70;77.90;;;;;;5111468;28;20039;-74
2023/08/09 09:04:31;;;;;;;5.93;1.80;;;15.70;78.00;;;;;;5106552;28;20126;-73
2023/08/09 09:06:58;;;;;;;2.97;1.70;;;15.60;78.10;;;;;;5074967;28;20578;-72
2023/08/09 09:09:26;;;;;;;5.70;2.35;;;15.60;78.00;;;;;;5111553;28;20031;-73
2023/08/09 09:11:53;;;;;;;6.20;2.53;;;15.60;78.00;;;;;;5113384;28;20043;-76
2023/08/09 09:14:20;;;;;;;4.78;2.30;;;15.60;78.20;;;;;;5112519;28;20047;-73
2023/08/09 09:16:47;;;;;;;7.95;2.13;;;15.60;78.30;;;;;;5111413;28;20031;-74
2023/08/09 09:19:15;;;;;;;8.18;2.13;;;15.60;78.10;;;;;;5060256;28;20095;-73
2023/08/09 09:21:43;;;;;;;3.63;1.90;;;15.50;78.10;;;;;;5093235;28;20117;-73
2023/08/09 09:24:11;;;;;;;5.13;1.90;;;15.60;78.20;;;;;;5088452;28;20036;-74
2023/08/09 09:26:38;;;;;;;6.80;2.20;;;15.50;78.20;;;;;;5092775;28;20126;-75
2023/08/09 09:29:09;;;;;;;4.93;1.88;;;15.50;78.20;;;;;;5090441;28;20066;-76
2023/08/09 09:31:40;;;;;;;3.35;1.70;;;15.50;78.10;;;;;;5058281;28;20040;-76
2023/08/09 09:34:09;;;;;;;4.70;2.00;;;15.50;78.20;;;;;;5057829;28;20044;-75
2023/08/09 09:36:40;;;;;;;5.10;2.20;;;15.50;78.20;;;;;;5056006;28;20047;-75
2023/08/09 09:39:13;;;;;;;6.18;1.83;;;15.50;78.20;;;;;;5108978;28;20418;-77
2023/08/09 09:41:49;;;;;;;3.33;1.90;;;15.40;78.20;;;;;;5094291;28;20039;-76
2023/08/09 09:44:20;;;;;;;4.97;2.00;;;15.40;78.40;;;;;;5077339;28;20071;-74
2023/08/09 09:46:53;;;;;;;5.32;1.80;;;15.40;78.40;;;;;;5111456;28;20062;-74
2023/08/09 09:49:20;;;;;;;4.50;1.83;;;15.40;78.40;;;;;;5094294;28;20516;-75
2023/08/09 09:51:49;;;;;;;4.57;1.90;;;15.40;78.40;;;;;;5111745;28;20112;-75
2023/08/09 09:54:16;;;;;;;3.50;1.88;;;15.30;78.40;;;;;;5072349;28;20397;-75
2023/08/09 09:56:43;;;;;;;2.95;1.92;;;15.40;78.40;;;;;;5073820;28;20032;-75
2023/08/09 09:59:12;;;;;;;4.25;2.10;;;15.40;78.50;;;;;;5107817;28;20039;-75
2023/08/09 10:01:42;;;;;;;5.82;1.90;;;15.30;78.40;;;;;;5111272;28;20034;-74
2023/08/09 10:04:11;;;;;;;5.70;2.05;;;15.30;78.40;;;;;;5093610;28;20035;-74
2023/08/09 10:06:42;;;;;;;8.77;2.38;;;15.30;78.50;;;;;;5092056;28;20113;-74
2023/08/09 10:09:10;;;;;;;4.32;2.13;;;15.30;78.60;;;;;;5095235;28;20032;-73
2023/08/09 10:11:38;;;;;;;3.95;2.20;;;15.30;78.60;;;;;;5093062;28;20035;-72
2023/08/09 10:14:07;;;;;;;3.75;1.90;;;15.20;78.60;;;;;;5076561;28;20040;-73
2023/08/09 10:16:38;;;;;;;7.95;2.22;;;15.30;78.70;;;;;;5094561;28;20035;-75
2023/08/09 10:19:16;;;;;;;8.00;2.20;;;15.20;78.50;;;;;;5094174;28;20451;-73
2023/08/09 10:21:43;;;;;;;3.92;2.20;;;15.20;78.90;;;;;;5072854;28;20499;-73
2023/08/09 10:24:17;;;;;;;4.32;2.00;;;15.20;78.60;;;;;;5073733;28;20040;-74
2023/08/09 10:26:46;;;;;;;4.80;2.13;;;15.20;78.60;;;;;;5102537;28;20136;-72
2023/08/09 10:29:14;;;;;;;2.53;1.90;;;15.20;78.60;;;;;;5061987;28;20394;-74
2023/08/09 10:32:03;;;;;;;4.13;1.70;;;15.20;78.50;;;;;;5107370;28;20057;-75
2023/08/09 10:34:37;;;;;;;6.28;1.73;;;15.20;78.30;;;;;;5099702;28;20476;-75
2023/08/09 10:37:06;;;;;;;3.20;1.90;;;15.20;78.40;;;;;;5069820;28;20572;-75
2023/08/09 10:39:34;;;;;;;6.15;1.95;;;15.20;78.70;;;;;;5078809;28;20074;-75
2023/08/09 10:42:08;;;;;;;4.18;1.90;;;15.20;78.70;;;;;;5088541;28;20105;-75
2023/08/09 10:44:45;;;;;;;5.93;1.92;;;15.20;78.50;;;;;;5074025;28;20039;-75
2023/08/09 10:47:13;;;;;;;2.53;1.52;;;15.10;78.70;;;;;;5093084;28;20055;-75
2023/08/09 10:49:49;;;;;;;5.20;2.03;;;15.20;78.60;;;;;;5108308;27;20476;-75
2023/08/09 10:52:38;;;;;;;3.67;1.70;;;15.10;78.50;;;;;;5098669;28;20060;-76
2023/08/09 10:55:21;;;;;;;3.53;1.95;;;15.20;78.60;;;;;;5110567;28;20047;-76
2023/08/09 10:57:49;;;;;;;3.17;1.80;;;15.10;78.40;;;;;;5110698;28;20059;-75
2023/08/09 11:00:18;;;;;;;4.30;2.13;;;15.00;78.80;;;;;;5092705;28;20128;-75
2023/08/09 11:02:49;;;;;;;6.63;1.85;;;15.00;78.90;;;;;;5091846;28;20093;-74
2023/08/09 11:05:17;;;;;;;6.30;1.70;;;15.00;79.00;;;;;;5091230;28;20059;-75
2023/08/09 11:07:45;;;;;;;2.70;1.67;;;15.00;78.90;;;;;;5072953;28;20032;-73
2023/08/09 11:10:12;;;;;;;5.63;1.70;;;15.00;79.00;;;;;;5060933;27;20046;-74
2023/08/09 11:12:46;;;;;;;2.95;1.85;;;15.00;78.80;;;;;;5113099;27;20062;-74
2023/08/09 11:15:13;;;;;;;3.63;1.60;;;14.90;79.00;;;;;;5092146;28;20096;-74
2023/08/09 11:17:50;;;;;;;3.35;1.63;;;14.90;79.10;;;;;;5111020;28;20028;-72
2023/08/09 11:20:19;;;;;;;2.90;1.73;;;15.00;78.90;;;;;;5074644;28;20050;-72
2023/08/09 11:22:59;;;;;;;3.75;1.63;;;15.00;79.00;;;;;;5110866;28;20039;-72
2023/08/09 11:25:27;;;;;;;4.03;1.85;;;15.00;79.10;;;;;;5099786;28;20059;-72
2023/08/09 11:27:56;;;;;;;3.22;1.60;;;14.90;79.20;;;;;;5080483;28;20074;-72
2023/08/09 11:30:23;;;;;;;3.70;1.52;;;14.90;79.20;;;;;;5088795;28;20032;-72
2023/08/09 11:33:00;;;;;;;5.80;1.70;;;15.00;79.30;;;;;;5097133;28;20063;-72
2023/08/09 11:35:44;;;;;;;6.75;1.80;;;15.00;79.20;;;;;;5083842;28;20040;-72
2023/08/09 11:38:15;;;;;;;2.78;1.60;;;14.90;79.30;;;;;;5074330;28;20111;-73
2023/08/09 11:40:48;;;;;;;6.00;1.90;;;14.90;79.30;;;;;;5103694;28;20032;-74
2023/08/09 11:43:20;;;;;;;4.80;1.65;;;14.90;79.60;;;;;;5089953;28;20420;-73
2023/08/09 11:45:52;;;;;;;3.20;1.70;;;14.90;79.60;;;;;;5086830;28;20461;-74
2023/08/09 11:48:38;;;;;;;7.10;2.20;;;14.90;79.70;;;;;;5110224;28;20047;-73
2023/08/09 11:51:20;;;;;;;3.92;2.13;;;14.90;79.90;;;;;;5108551;28;20085;-74
2023/08/09 11:53:50;;;;;;;6.55;1.70;;;14.80;79.90;;;;;;5110084;28;20035;-73
2023/08/09 11:56:22;;;;;;;;;;;14.80;80.00;;;;;;5110018;28;20217;-74
2023/08/09 11:58:52;;;;;;;4.90;1.70;;;14.80;79.90;;;;;;5092954;28;19908;-75
2023/08/09 12:01:24;;;;;;;4.45;1.67;;;14.80;79.80;;;;;;5110001;28;20031;-76
2023/08/09 12:03:52;;;;;;;4.65;1.75;;;14.80;79.80;;;;;;5104949;28;20514;-75
2023/08/09 12:06:33;;;;;;;5.53;1.75;;;14.80;79.70;;;;;;5091369;28;20397;-73
2023/08/09 12:09:00;;;;;;;2.53;1.48;;;14.80;79.80;;;;;;5072807;28;20036;-72
2023/08/09 12:11:27;;;;;;;3.75;1.67;;;14.80;80.00;;;;;;5093219;28;20027;-72
2023/08/09 12:13:55;;;;;;;2.72;1.60;;;14.70;80.00;;;;;;5112604;28;20507;-73
2023/08/09 12:16:22;;;;;;;4.55;1.90;;;14.70;79.90;;;;;;5077568;28;20134;-73
2023/08/09 12:18:49;;;;;;;2.92;1.77;;;14.70;80.00;;;;;;5084376;28;20520;-73
2023/08/09 12:21:17;;;;;;;3.70;1.50;;;14.70;79.90;;;;;;5096871;28;20040;-73
2023/08/09 12:23:44;;;;;;;4.32;1.60;;;14.70;79.90;;;;;;5094361;28;20358;-73
2023/08/09 13:58:52;;;;;;;5.35;1.95;;;14.00;80.10;;;;;;5091114;28;20047;-73
2023/08/09 14:01:19;;;;;;;2.70;1.35;;;14.00;80.40;;;;;;5071364;28;20056;-73
2023/08/09 14:03:46;;;;;;;3.40;1.70;;;13.90;80.50;;;;;;5074153;28;20035;-73
2023/08/09 14:06:14;;;;;;;4.28;1.75;;;13.90;80.60;;;;;;5056561;28;20068;-73
2023/08/09 14:08:41;;;;;;;3.97;1.65;;;13.80;80.70;;;;;;5056446;28;20398;-73
2023/08/09 14:11:08;;;;;;;3.20;1.63;;;13.90;80.70;;;;;;5072532;28;20043;-73
2023/08/09 14:13:35;;;;;;;2.97;1.60;;;14.00;80.60;;;;;;5056963;28;20024;-73
2023/08/09 14:16:02;;;;;;;5.10;1.70;;;14.00;80.50;;;;;;5074521;28;20051;-73
2023/08/09 14:18:33;;;;;;;2.35;1.60;;;14.00;80.50;;;;;;5055184;28;20081;-73
2023/08/09 14:21:00;;;;;;;2.65;1.50;;;14.00;80.00;;;;;;5056072;28;20044;-73
2023/08/09 14:23:28;;;;;;;3.75;1.73;;;14.00;80.00;;;;;;5055731;28;20036;-73
2023/08/09 14:25:55;;;;;;;3.17;1.63;;;14.00;80.20;;;;;;5074156;28;20111;-73
2023/08/09 14:28:23;;;;;;;4.65;1.70;;;14.00;79.90;;;;;;5056312;28;20037;-73
2023/08/09 14:30:50;;;;;;;3.22;1.70;;;14.00;79.90;;;;;;5073281;28;20123;-73
2023/08/09 14:33:19;;;;;;;4.10;1.60;;;14.00;80.00;;;;;;5055515;28;20029;-73
2023/08/09 14:35:46;;;;;;;4.47;1.60;;;14.00;80.10;;;;;;5056336;28;20064;-73
2023/08/09 14:38:15;;;;;;;2.15;1.52;;;13.90;79.90;;;;;;5054855;28;20032;-73
2023/08/09 14:40:43;;;;;;;2.33;1.50;;;13.90;79.80;;;;;;5055447;28;20486;-73
2023/08/09 14:43:10;;;;;;;2.65;1.70;;;13.90;80.00;;;;;;5023149;28;20124;-73
2023/08/09 14:45:37;;;;;;;2.97;1.73;;;13.80;79.90;;;;;;5023090;28;20029;-73
2023/08/09 14:48:05;;;;;;;2.95;1.80;;;13.80;79.90;;;;;;5073356;28;20059;-73
2023/08/09 14:50:32;;;;;;;7.13;1.45;;;13.80;80.10;;;;;;5037841;28;20028;-73
2023/08/09 14:53:00;;;;;;;4.32;1.83;;;13.70;80.20;;;;;;5073649;28;20550;-73
2023/08/09 14:55:28;;;;;;;3.83;1.60;;;13.70;80.20;;;;;;5073637;28;20059;-73
2023/08/09 14:57:56;;;;;;;5.15;1.70;;;13.70;80.30;;;;;;5072564;28;20031;-73
2023/08/09 15:00:26;;;;;;;2.53;1.48;;;13.70;80.30;;;;;;5055554;28;20521;-73
2023/08/09 15:02:53;;;;;;;3.45;1.90;;;13.70;80.60;;;;;;5093245;28;20035;-73
2023/08/09 15:05:21;;;;;;;2.92;1.85;;;13.70;80.20;;;;;;5074835;28;20054;-73
2023/08/09 15:07:49;;;;;;;2.63;1.73;;;13.70;80.30;;;;;;5074717;28;20047;-73
2023/08/09 15:10:16;;;;;;;2.58;1.67;;;13.70;79.90;;;;;;5092996;28;20096;-73
2023/08/09 15:12:43;;;;;;;7.25;2.00;;;13.70;79.80;;;;;;5091384;28;20035;-73
2023/08/09 15:15:11;;;;;;;5.03;1.80;;;13.70;79.70;;;;;;5092824;28;20040;-73
2023/08/09 15:17:38;;;;;;;3.13;1.73;;;13.70;79.40;;;;;;5093089;28;20529;-73
2023/08/09 15:20:11;;;;;;;4.43;1.67;;;13.70;79.70;;;;;;5075356;28;20036;-73
2023/08/09 15:22:38;;;;;;;2.53;1.70;;;13.60;79.30;;;;;;5064635;28;20039;-73
2023/08/09 15:25:17;;;;;;;2.97;1.80;;;13.70;79.00;;;;;;5072658;28;20028;-73
2023/08/09 15:27:45;;;;;;;4.90;1.90;;;13.60;78.70;;;;;;5089252;28;20048;-73
2023/08/09 15:30:14;;;;;;;3.38;1.70;;;13.70;78.60;;;;;;5075410;28;20027;-73
2023/08/09 15:32:43;;;;;;;2.80;2.00;;;13.60;78.90;;;;;;5063889;28;20044;-73
2023/08/09 15:35:11;;;;;;;3.03;1.67;;;13.60;79.00;;;;;;5072809;28;20048;-73
2023/08/09 15:37:38;;;;;;;2.53;1.70;;;13.60;78.50;;;;;;5072392;28;20033;-73
2023/08/09 15:40:07;;;;;;;3.78;1.60;;;13.60;77.90;;;;;;5055273;28;20036;-73
2023/08/09 15:42:35;;;;;;;2.70;1.77;;;13.50;78.00;;;;;;5080721;28;20037;-73
2023/08/09 15:45:03;;;;;;;7.28;1.85;;;13.50;78.10;;;;;;5038670;28;20115;-73
2023/08/09 15:47:31;;;;;;;3.88;1.90;;;13.50;78.30;;;;;;5054881;28;20414;-73
2023/08/09 15:49:58;;;;;;;5.15;1.77;;;13.50;78.70;;;;;;5054889;28;20455;-73
2023/08/09 15:52:25;;;;;;;3.85;1.85;;;13.40;78.80;;;;;;5081024;28;20061;-73
2023/08/09 15:54:54;;;;;;;4.22;1.90;;;13.40;78.70;;;;;;5072905;28;20123;-73
2023/08/09 15:57:21;;;;;;;3.15;1.60;;;13.40;78.40;;;;;;5072356;28;20029;-73
2023/08/09 15:59:48;;;;;;;3.63;1.80;;;13.50;77.90;;;;;;5085454;28;20044;-73
2023/08/09 16:02:16;;;;;;;3.13;1.65;;;13.50;77.40;;;;;;5085646;28;20377;-73
2023/08/09 16:04:43;;;;;;;3.10;1.73;;;13.50;76.90;;;;;;5072400;28;20398;-73
2023/08/09 16:07:12;;;;;;;1.83;1.52;;;13.40;77.20;;;;;;5054540;28;20028;-73
2023/08/09 16:09:39;;;;;;;4.15;1.95;;;13.40;77.40;;;;;;5038004;28;20059;-73
2023/08/09 16:12:10;;;;;;;2.75;1.83;;;13.40;77.00;;;;;;5079307;28;20047;-72
2023/08/09 16:14:38;;;;;;;3.30;1.83;;;13.40;77.40;;;;;;5071773;28;20039;-73
2023/08/09 16:17:06;;;;;;;2.58;1.67;;;13.30;77.60;;;;;;5061657;28;20075;-73
2023/08/09 16:19:33;;;;;;;2.15;1.58;;;13.30;77.40;;;;;;5071891;28;20029;-73
2023/08/09 16:22:01;;;;;;;3.83;1.77;;;13.30;77.30;;;;;;5072629;28;20041;-73
2023/08/09 16:24:28;;;;;;;4.20;1.95;;;13.20;78.00;;;;;;5037738;28;20028;-73
2023/08/09 16:26:55;;;;;;;3.72;1.90;;;13.20;78.40;;;;;;5078769;28;20056;-73
2023/08/09 16:29:22;;;;;;;6.47;1.92;;;13.00;79.00;;;;;;5092169;28;20032;-73
2023/08/09 16:31:49;;;;;;;5.68;1.83;;;12.90;79.70;;;;;;5091249;28;20032;-73
2023/08/09 16:34:17;;;;;;;4.28;2.15;;;12.90;80.10;;;;;;5092285;28;20390;-73
2023/08/09 16:36:44;;;;;;;6.07;2.00;;;12.80;79.80;;;;;;5092271;28;20047;-73
2023/08/09 16:39:11;;;;;;;3.97;1.80;;;12.80;79.70;;;;;;5092190;28;20032;-73
2023/08/09 16:41:40;;;;;;;3.05;1.83;;;12.80;79.70;;;;;;5086484;28;20032;-73
2023/08/09 16:44:07;;;;;;;2.80;1.60;;;12.80;79.80;;;;;;5092380;28;20028;-73
2023/08/09 16:46:35;;;;;;;5.80;1.98;;;12.70;79.70;;;;;;5092292;28;20486;-71
2023/08/09 16:49:02;;;;;;;2.78;1.85;;;12.70;79.90;;;;;;5092166;28;20475;-73
2023/08/09 16:51:29;;;;;;;5.68;2.10;;;12.70;79.60;;;;;;5088280;28;20032;-73
2023/08/09 16:53:56;;;;;;;2.67;1.73;;;12.80;78.80;;;;;;5053548;28;20398;-73
2023/08/09 16:56:25;;;;;;;3.17;1.80;;;12.80;78.30;;;;;;5071501;28;20114;-73
2023/08/09 16:58:52;;;;;;;3.13;1.67;;;12.90;77.90;;;;;;5053788;28;20031;-73
2023/08/09 17:01:20;;;;;;;3.17;1.98;;;13.00;77.80;;;;;;5080460;28;20044;-73
2023/08/09 17:03:47;;;;;;;4.88;1.83;;;12.90;77.90;;;;;;5057819;28;20055;-73
2023/08/09 17:06:15;;;;;;;3.95;2.10;;;12.80;78.00;;;;;;5091419;28;20103;-73
2023/08/09 17:08:43;;;;;;;4.97;1.67;;;12.80;77.80;;;;;;5091913;28;20040;-72
2023/08/09 17:11:10;;;;;;;4.22;2.00;;;12.80;78.60;;;;;;5063835;28;20029;-73
2023/08/09 17:13:37;;;;;;;2.78;1.83;;;12.70;78.80;;;;;;5084291;28;20363;-73
2023/08/09 17:16:04;;;;;;;3.58;1.90;;;12.60;79.40;;;;;;5073781;28;20050;-73
2023/08/09 17:18:33;;;;;;;2.38;1.92;;;12.60;79.30;;;;;;5091221;28;20027;-72
2023/08/09 21:08:44;;;;;;;;;;;13.10;67.10;;;;;;5082808;28;20114;-74
2023/08/09 21:11:11;;;;;;;2.70;1.70;;;13.20;67.00;;;;;;5085482;28;20002;-74
2023/08/09 21:13:38;;;;;;;2.55;1.60;;;13.20;68.20;;;;;;5097236;28;20039;-73
2023/08/09 21:16:05;;;;;;;3.80;1.80;;;13.20;66.90;;;;;;5115609;28;20063;-74
2023/08/09 21:18:32;;;;;;;3.25;1.73;;;13.20;67.10;;;;;;5092678;28;20452;-74
2023/08/09 21:21:00;;;;;;;2.90;1.50;;;13.20;67.00;;;;;;5095587;28;20028;-74
2023/08/09 21:23:27;;;;;;;4.30;1.70;;;13.20;67.00;;;;;;5095566;28;20043;-74
2023/08/09 21:25:54;;;;;;;2.90;1.60;;;13.30;67.10;;;;;;5095658;28;20032;-74
2023/08/09 21:28:22;;;;;;;2.60;1.63;;;13.30;67.20;;;;;;5108953;28;20031;-74
2023/08/09 21:30:53;;;;;;;2.83;1.60;;;13.40;67.50;;;;;;5077166;28;20028;-74
2023/08/09 21:33:22;;;;;;;5.72;2.40;;;13.40;67.40;;;;;;5077602;28;20029;-74
2023/08/09 21:35:50;;;;;;;4.70;2.15;;;13.50;67.00;;;;;;5060680;28;20413;-74
2023/08/09 21:38:18;;;;;;;4.03;1.70;;;13.50;66.80;;;;;;5095089;28;20036;-74
2023/08/09 21:40:45;;;;;;;4.53;1.35;;;13.60;66.90;;;;;;5097125;28;20028;-74
2023/08/09 21:43:12;;;;;;;4.57;1.73;;;13.60;66.10;;;;;;5107901;28;20053;-75
2023/08/09 21:45:39;;;;;;;2.47;1.60;;;13.70;66.40;;;;;;5115569;28;20040;-75
2023/08/09 21:48:07;;;;;;;3.03;1.75;;;13.70;65.60;;;;;;5114856;28;20024;-74
2023/08/09 21:50:34;;;;;;;2.47;1.60;;;13.70;65.50;;;;;;5115294;28;20039;-74
2023/08/09 21:53:01;;;;;;;4.90;1.70;;;13.70;65.60;;;;;;5103460;28;20028;-74
2023/08/09 21:55:28;;;;;;;2.88;1.50;;;13.70;65.60;;;;;;5094877;28;20047;-74
2023/08/09 21:57:55;;;;;;;4.53;1.50;;;13.70;65.60;;;;;;5095035;28;20113;-74
2023/08/09 22:00:24;;;;;;;2.85;1.50;;;13.70;65.60;;;;;;5077321;28;20036;-75
2023/08/09 22:02:52;;;;;;;6.72;1.70;;;13.70;65.40;;;;;;5094794;28;20016;-75
2023/08/09 22:05:19;;;;;;;6.40;1.67;;;13.80;65.80;;;;;;5076951;28;20040;-75
2023/08/09 22:07:47;;;;;;;3.83;1.75;;;13.80;66.20;;;;;;5109996;28;20028;-74
2023/08/09 22:10:14;;;;;;;2.60;1.77;;;13.90;65.90;;;;;;5097529;28;20043;-75
2023/08/09 22:12:42;;;;;;;5.45;1.80;;;14.00;66.50;;;;;;5113141;28;20481;-75
2023/08/09 22:15:09;;;;;;;2.33;1.67;;;14.10;66.20;;;;;;5114554;28;20485;-75
2023/08/09 22:17:37;;;;;;;3.10;1.98;;;14.10;66.00;;;;;;5096720;28;20030;-75
2023/08/09 22:20:07;;;;;;;;;;;14.20;65.80;;;;;;5095373;28;20052;-75
2023/08/09 22:22:34;;;;;;;2.83;1.80;;;14.30;64.80;;;;;;5112589;28;20006;-74
2023/08/09 22:25:01;;;;;;;4.15;1.70;;;14.40;66.10;;;;;;5113072;28;20043;-74
2023/08/09 22:27:30;;;;;;;2.55;1.52;;;14.40;65.30;;;;;;5095045;28;20039;-75
2023/08/09 22:29:58;;;;;;;2.35;1.60;;;14.50;64.60;;;;;;5113174;28;20032;-75
2023/08/09 22:32:25;;;;;;;3.15;1.60;;;14.60;64.60;;;;;;5113494;28;20070;-74
2023/08/09 22:34:53;;;;;;;1.70;1.20;;;14.70;64.10;;;;;;5078321;28;20028;-74
2023/08/09 22:37:20;;;;;;;2.30;1.63;;;14.70;63.90;;;;;;5096940;28;20040;-74
